Appleton, Arkansas
Current Conditions -  °F | °C
As of 10:16 AM on Thursday 18 Dec 2014 (Local Time) from KRUE Reporting Station
Overcast Overcast  
Wind Chill: 33°   Ceiling: 900
Heat Index: 38°   Visibility: 10mi
Dew Point: 35°   Wind: 6mph
Humidity: 89%   Direction: 80°E
Pressure: 30.25"   Gusts: NA
Location:  35.2384°N, 92.9429°W
Report Text: KRUE 181616Z AUTO 08005KT 10SM OVC009 03/02 A3025 RMK AO2 T00330017
Loading
Personal Weather Stations






























Interactive Weather Map New forecast layout! Learn more

10-Day Weather Forecast

Advertisements
Track Severe Weather on mobile